NVI weather

Navoi Airport
Navoi, Navoiy, Uzbekistan

Public forecast

Using degrees Celsius for public forecast. Weather courtesy of forecast.io.

METAR (pilot weather report)

Retrieved 2019/09/22 23:30 UTC (8 minutes ago):

UTSA 222330Z 35016KT 9999 NSC 14/06 Q1022 R25/CLRD70 NOSIG

TAF (pilot weather forecast)

Retrieved 2019/09/22 18:09 UTC (5 hours ago):

TAF UTSA 221701Z 2218/2318 34012KT 7000 NSC TEMPO 2218/2305 32016G26KT 4000 -DS FEW020 SCT050CB